Hlavní strana
METAR-TAF:

METAR-TAF

Letiště :

Clemson, Jižní Karolína, Spojené státy americké

zeměpisná šířka: 34-40-20N, zeměpisná délka: 082-52-53W, výška: 272 m

Aktuální stav počasí

Zpráva byla vytvořena před 1 hodinou a 0 minutami, v 12:54 UTC
Severoseverozápadní vítr 3 kt
Teplota 7°C
Vlhkost vzduchu 57%
Tlak 1023 hPa
Viditelnost: 16.1 km
Jasno

METAR: KCEU 181254Z AUTO 33003KT 10SM CLR 07/M01 A3021 RMK AO2 SLP230 T00721011

Čas: 09:54 (13:54 UTC)


TAF: chybějící

Stav a předpovědi počasí z více než 4 000 letišť (zprávy METAR a TAF).

Červené a žluté tečky na mapě představují dostupné meteorologické stanice.

Když kurzor umístíte na tečku, zobrazí se název stanice.

Pak kliknutím zobrazíte stav a předpověď počasí.

Chcete-li změnit mapu, kliknutím na zelené tlačítko se znaménkem +mapu přiblížíte, kliknutím na zelené tlačítko se znaménkem – mapu oddálíte a kliknutím na zelené šipky přejdete na sousední mapy.


METAR-TAF: